createdAt,value
2018-09-05T00:00:28.945Z,24.67
2018-09-05T00:02:56.063Z,24.37
2018-09-05T00:05:23.216Z,23.77
2018-09-05T00:07:50.323Z,22.70
2018-09-05T00:10:17.531Z,23.77
2018-09-05T00:12:44.694Z,24.73
2018-09-05T00:15:11.816Z,24.60
2018-09-05T00:17:38.931Z,23.70
2018-09-05T00:20:06.090Z,22.75
2018-09-05T00:22:33.225Z,23.40
2018-09-05T00:25:00.388Z,23.60
2018-09-05T00:27:27.504Z,23.20
2018-09-05T00:29:54.619Z,22.80
2018-09-05T00:32:21.772Z,23.40
2018-09-05T00:34:48.905Z,23.17
2018-09-05T00:37:16.071Z,22.90
2018-09-05T00:39:43.194Z,23.43
2018-09-05T00:42:10.347Z,24.00
2018-09-05T00:44:37.482Z,25.47
2018-09-05T00:47:04.620Z,24.30
2018-09-05T00:49:31.769Z,23.50
2018-09-05T00:51:58.905Z,21.67
2018-09-05T00:54:26.030Z,24.17
2018-09-05T00:56:53.159Z,24.13
2018-09-05T00:59:20.346Z,22.20
2018-09-05T01:01:47.472Z,24.17
2018-09-05T01:04:14.614Z,22.10
2018-09-05T01:06:41.734Z,23.80
2018-09-05T01:09:09.193Z,23.63
2018-09-05T01:11:36.401Z,25.10
2018-09-05T01:14:03.542Z,21.85
2018-09-05T01:16:30.802Z,25.15
2018-09-05T01:38:37.888Z,26.30
2018-09-05T01:41:05.041Z,26.70
2018-09-05T01:53:18.808Z,28.30
2018-09-05T01:55:45.916Z,28.30
2018-09-05T01:58:13.033Z,27.70
2018-09-05T02:00:40.145Z,27.37
2018-09-05T02:03:07.252Z,28.00
2018-09-05T02:08:02.045Z,28.90
2018-09-05T02:10:29.893Z,29.40
2018-09-05T02:12:57.001Z,30.53
2018-09-05T02:15:24.192Z,33.00
2018-09-05T02:17:51.673Z,29.23
2018-09-05T02:20:18.804Z,33.47
2018-09-05T02:22:45.912Z,32.15
2018-09-05T02:25:13.064Z,31.07
2018-09-05T02:27:40.253Z,30.80
2018-09-05T02:30:07.733Z,29.73
2018-09-05T02:32:34.964Z,32.40
2018-09-05T02:35:02.125Z,30.60
2018-09-05T02:37:29.405Z,29.40
2018-09-05T02:39:56.532Z,28.85
2018-09-05T02:42:23.660Z,31.20
2018-09-05T02:44:50.821Z,29.83
2018-09-05T02:47:17.962Z,31.73
2018-09-05T02:49:45.088Z,33.70
2018-09-05T02:52:12.231Z,36.85
2018-09-05T02:54:39.360Z,33.57
2018-09-05T02:57:06.513Z,37.00
2018-09-05T02:59:33.621Z,34.80
2018-09-05T03:02:00.785Z,36.37
2018-09-05T03:04:27.878Z,37.23
2018-09-05T03:06:55.033Z,36.47
2018-09-05T03:09:22.260Z,39.20
2018-09-05T03:11:49.320Z,39.60
2018-09-05T03:14:16.445Z,37.60
2018-09-05T03:16:43.569Z,35.30
2018-09-05T03:19:10.732Z,37.03
2018-09-05T03:21:37.878Z,39.17
2018-09-05T03:26:31.677Z,37.00
2018-09-05T03:28:58.817Z,38.87
2018-09-05T03:31:25.936Z,36.97
2018-09-05T03:33:53.080Z,39.47
2018-09-05T03:36:20.373Z,42.33
2018-09-05T03:38:47.452Z,40.65
2018-09-05T03:41:14.576Z,42.57
2018-09-05T03:43:41.744Z,42.95
2018-09-05T03:46:08.869Z,44.00
2018-09-05T03:48:35.984Z,41.53
2018-09-05T03:51:03.129Z,43.35
2018-09-05T03:53:30.257Z,43.60
2018-09-05T03:55:57.353Z,42.40
2018-09-05T04:03:17.748Z,44.10
2018-09-05T04:05:44.870Z,44.00
2018-09-05T04:10:38.684Z,48.20
2018-09-05T04:15:32.536Z,44.90
2018-09-05T04:17:59.648Z,44.10
2018-09-05T04:20:26.814Z,42.40
2018-09-05T04:22:53.944Z,42.40
2018-09-05T04:25:21.126Z,44.70
2018-09-05T04:27:48.284Z,44.40
2018-09-05T04:37:35.953Z,44.40
2018-09-05T04:47:23.092Z,52.95
2018-09-05T04:49:50.212Z,45.60
2018-09-05T04:59:37.428Z,45.70
2018-09-05T05:02:04.608Z,44.40
2018-09-05T05:04:31.743Z,45.40
2018-09-05T05:06:58.862Z,47.10
2018-09-05T05:09:26.001Z,44.67
2018-09-05T05:11:53.120Z,46.10
2018-09-05T05:14:20.279Z,45.33
2018-09-05T05:16:47.428Z,45.53
2018-09-05T05:19:14.577Z,47.30
2018-09-05T05:21:41.724Z,47.37
2018-09-05T05:24:08.860Z,43.87
2018-09-05T05:26:35.977Z,46.03
2018-09-05T05:29:03.142Z,46.37
2018-09-05T05:31:30.279Z,42.43
2018-09-05T05:33:57.429Z,44.60
2018-09-05T05:36:24.560Z,40.73
2018-09-05T05:38:51.712Z,48.07
2018-09-05T05:41:18.858Z,45.33
2018-09-05T05:43:46.411Z,48.30
2018-09-05T05:46:13.553Z,46.13
2018-09-05T05:48:40.684Z,44.33
2018-09-05T05:51:07.832Z,42.67
2018-09-05T05:53:35.393Z,41.60
2018-09-05T05:56:02.636Z,43.33
2018-09-05T05:58:29.970Z,45.00
2018-09-05T06:00:57.170Z,47.57
2018-09-05T06:03:24.241Z,49.27
2018-09-05T06:05:51.448Z,49.35
2018-09-05T06:08:18.577Z,52.87
2018-09-05T06:10:45.694Z,46.90
2018-09-05T06:13:12.807Z,45.83
2018-09-05T06:15:40.017Z,47.50
2018-09-05T06:18:07.050Z,50.30
2018-09-05T06:20:34.212Z,51.90
2018-09-05T06:23:01.345Z,49.07
2018-09-05T06:25:28.500Z,48.67
2018-09-05T06:27:55.709Z,51.55
2018-09-05T06:30:23.492Z,47.63
2018-09-05T06:32:50.620Z,53.03
2018-09-05T06:35:17.764Z,56.43
2018-09-05T06:37:44.908Z,56.87
2018-09-05T06:40:12.067Z,54.50
2018-09-05T06:42:39.187Z,55.10
2018-09-05T06:45:06.436Z,55.53
2018-09-05T06:47:33.441Z,53.83
2018-09-05T06:50:00.589Z,56.83
2018-09-05T06:52:27.774Z,59.30
2018-09-05T06:54:54.930Z,64.10
2018-09-05T06:57:22.167Z,58.63
2018-09-05T06:59:49.328Z,60.30
2018-09-05T07:02:16.458Z,57.90
2018-09-05T07:04:43.596Z,60.03
2018-09-05T07:07:10.773Z,56.83
2018-09-05T07:09:37.948Z,55.93
2018-09-05T07:12:05.348Z,56.77
2018-09-05T07:14:32.545Z,59.83
2018-09-05T07:16:59.653Z,63.57
2018-09-05T07:19:26.818Z,61.40
2018-09-05T07:21:54.002Z,66.10
2018-09-05T07:24:21.161Z,65.47
2018-09-05T07:26:48.310Z,61.37
2018-09-05T07:29:15.441Z,66.47
2018-09-05T07:31:42.573Z,68.23
2018-09-05T07:34:09.696Z,66.87
2018-09-05T07:36:36.816Z,71.50
2018-09-05T07:39:07.316Z,68.93
2018-09-05T07:41:34.464Z,73.50
2018-09-05T07:44:01.621Z,73.93
2018-09-05T07:46:28.760Z,76.03
2018-09-05T07:48:55.992Z,79.70
2018-09-05T07:51:23.126Z,85.83
2018-09-05T07:53:50.241Z,83.67
2018-09-05T07:56:17.362Z,84.95
2018-09-05T08:06:04.658Z,85.43
2018-09-05T08:08:31.788Z,90.07
2018-09-05T08:10:58.944Z,96.97
2018-09-05T08:13:26.096Z,92.93
2018-09-05T08:15:53.253Z,102.95
2018-09-05T08:18:20.401Z,105.40
2018-09-05T08:20:47.532Z,101.60
2018-09-05T08:23:14.663Z,101.40
2018-09-05T08:25:41.793Z,100.20
2018-09-05T08:28:08.925Z,102.90
2018-09-05T08:30:36.085Z,96.35
2018-09-05T08:33:03.212Z,99.65
2018-09-05T08:35:30.494Z,100.80
2018-09-05T08:37:57.543Z,102.20
2018-09-05T08:40:24.598Z,102.90
2018-09-05T08:42:51.717Z,96.90
2018-09-05T08:45:19.083Z,100.00
2018-09-05T08:47:46.064Z,96.35
2018-09-05T08:50:13.089Z,100.70
2018-09-05T08:52:40.267Z,103.00
2018-09-05T08:55:07.463Z,107.10
2018-09-05T09:00:01.216Z,103.00
2018-09-05T09:09:48.328Z,114.47
2018-09-05T09:12:15.532Z,101.00
2018-09-05T09:14:42.677Z,111.00
2018-09-05T09:17:09.817Z,102.70
2018-09-05T09:19:36.936Z,110.40
2018-09-05T09:26:57.412Z,111.40
2018-09-05T09:31:51.140Z,118.75
2018-09-05T09:36:44.885Z,119.05
2018-09-05T09:56:19.808Z,115.55
2018-09-05T10:03:52.343Z,112.27
2018-09-05T10:06:21.274Z,109.27
2018-09-05T10:08:54.183Z,105.60
2018-09-05T10:11:27.247Z,110.70
2018-09-05T10:14:00.105Z,106.95
2018-09-05T10:16:33.015Z,100.10
2018-09-05T10:19:04.769Z,100.90
2018-09-05T10:21:31.916Z,105.10
2018-09-05T10:23:59.048Z,101.77
2018-09-05T10:36:12.752Z,87.15
2018-09-05T10:45:59.785Z,82.33
2018-09-05T10:48:26.896Z,81.15
2018-09-05T10:50:54.008Z,75.90
2018-09-05T10:53:21.117Z,74.83
2018-09-05T10:55:48.252Z,78.07
2018-09-05T10:58:15.469Z,75.07
2018-09-05T11:00:42.489Z,75.37
2018-09-05T11:03:09.608Z,75.30
2018-09-05T11:05:36.741Z,73.23
2018-09-05T11:08:04.042Z,76.27
2018-09-05T11:10:31.181Z,74.23
2018-09-05T11:12:58.268Z,72.13
2018-09-05T11:15:25.387Z,71.17
2018-09-05T11:17:52.500Z,72.27
2018-09-05T11:20:19.633Z,69.73
2018-09-05T11:22:46.753Z,66.77
2018-09-05T11:25:13.872Z,71.07
2018-09-05T11:27:41.027Z,67.60
2018-09-05T11:30:10.976Z,65.43
2018-09-05T11:32:38.176Z,63.30
2018-09-05T11:35:05.388Z,66.63
2018-09-05T11:37:33.144Z,63.10
2018-09-05T11:40:00.316Z,63.87
2018-09-05T11:42:27.434Z,64.07
2018-09-05T11:44:54.549Z,60.93
2018-09-05T11:47:21.685Z,56.97
2018-09-05T11:49:48.838Z,56.87
2018-09-05T11:52:15.980Z,55.90
2018-09-05T11:54:43.112Z,57.63
2018-09-05T11:57:10.260Z,57.30
2018-09-05T11:59:37.376Z,56.80
2018-09-05T12:02:04.565Z,56.60
2018-09-05T12:04:31.693Z,51.67
2018-09-05T12:06:58.849Z,52.87
2018-09-05T12:09:25.945Z,52.87
2018-09-05T12:11:53.084Z,50.73
2018-09-05T12:14:20.205Z,51.90
2018-09-05T12:48:56.177Z,50.85
2018-09-05T12:56:17.192Z,52.70
2018-09-05T12:58:44.309Z,48.87
2018-09-05T13:01:11.452Z,50.67
2018-09-05T13:03:40.678Z,48.47
2018-09-05T13:06:09.374Z,48.00
2018-09-05T13:08:39.155Z,50.17
2018-09-05T13:11:10.369Z,48.77
2018-09-05T13:13:43.664Z,47.50
2018-09-05T13:16:12.746Z,50.00
2018-09-05T13:18:44.523Z,48.97
2018-09-05T13:21:12.679Z,49.83
2018-09-05T13:23:42.655Z,49.17
2018-09-05T13:26:10.205Z,49.57
2018-09-05T13:28:48.415Z,48.58
2018-09-05T13:31:17.773Z,47.67
2018-09-05T13:34:02.796Z,47.47
2018-09-05T13:36:50.936Z,46.03
2018-09-05T13:39:21.966Z,44.05
2018-09-05T13:41:50.532Z,43.00
2018-09-05T13:44:18.327Z,42.57
2018-09-05T13:46:47.479Z,46.20
2018-09-05T13:49:15.185Z,47.17
2018-09-05T13:51:47.269Z,49.50
2018-09-05T13:54:14.633Z,47.40
2018-09-05T13:56:41.964Z,44.93
2018-09-05T13:59:09.232Z,43.83
2018-09-05T14:01:36.420Z,44.33
2018-09-05T14:04:04.681Z,45.50
2018-09-05T14:06:32.597Z,45.00
2018-09-05T14:08:59.798Z,42.23
2018-09-05T14:11:27.065Z,42.27
2018-09-05T14:13:54.189Z,42.27
2018-09-05T14:16:21.398Z,46.57
2018-09-05T14:18:49.768Z,45.40
2018-09-05T14:21:17.145Z,44.00
2018-09-05T14:23:44.435Z,48.60
2018-09-05T14:26:11.745Z,44.15
2018-09-05T14:28:38.940Z,40.77
2018-09-05T14:31:06.313Z,41.83
2018-09-05T14:33:33.832Z,42.73
2018-09-05T14:36:00.977Z,42.90
2018-09-05T14:38:28.190Z,44.55
2018-09-05T14:40:55.330Z,45.00
2018-09-05T14:43:22.434Z,44.57
2018-09-05T14:45:49.597Z,42.77
2018-09-05T14:48:16.783Z,40.37
2018-09-05T14:50:43.891Z,46.53
2018-09-05T14:53:11.016Z,45.17
2018-09-05T14:55:38.316Z,44.87
2018-09-05T14:58:05.862Z,44.77
2018-09-05T15:00:33.009Z,42.97
2018-09-05T15:03:00.374Z,45.07
2018-09-05T15:05:27.583Z,43.87
2018-09-05T15:07:54.773Z,41.97
2018-09-05T15:10:21.950Z,41.23
2018-09-05T15:12:49.133Z,45.33
2018-09-05T15:15:16.480Z,41.27
2018-09-05T15:17:43.684Z,44.93
2018-09-05T15:20:10.796Z,40.80
2018-09-05T15:22:38.161Z,42.23
2018-09-05T15:25:05.632Z,39.63
2018-09-05T15:27:32.810Z,40.33
2018-09-05T15:29:59.928Z,41.60
2018-09-05T15:32:27.034Z,40.13
2018-09-05T15:34:54.216Z,40.17
2018-09-05T15:37:21.336Z,39.67
2018-09-05T15:39:48.725Z,42.37
2018-09-05T15:42:15.857Z,41.93
2018-09-05T15:44:42.981Z,40.90
2018-09-05T15:47:10.101Z,39.80
2018-09-05T15:49:37.240Z,39.47
2018-09-05T15:52:04.363Z,40.30
2018-09-05T15:54:31.492Z,37.63
2018-09-05T15:56:58.650Z,38.75
2018-09-05T15:59:25.857Z,36.33
2018-09-05T16:01:53.769Z,37.23
2018-09-05T16:04:20.920Z,35.77
2018-09-05T16:06:48.113Z,36.57
2018-09-05T16:09:16.694Z,37.67
2018-09-05T16:11:44.990Z,39.00
2018-09-05T16:14:12.325Z,39.03
2018-09-05T16:16:39.977Z,38.95
2018-09-05T16:19:07.415Z,39.60
2018-09-05T16:21:34.671Z,37.73
2018-09-05T16:24:02.301Z,38.27
2018-09-05T16:26:29.529Z,38.83
2018-09-05T16:28:57.297Z,37.27
2018-09-05T16:31:27.211Z,38.07
2018-09-05T16:33:55.571Z,37.47
2018-09-05T16:39:10.035Z,36.23
2018-09-05T16:41:40.567Z,36.30
2018-09-05T16:44:11.002Z,36.77
2018-09-05T16:46:42.506Z,36.43
2018-09-05T16:49:10.413Z,37.57
2018-09-05T16:51:39.680Z,34.60
2018-09-05T16:54:08.475Z,34.20
2018-09-05T16:56:37.291Z,34.20
2018-09-05T16:59:08.626Z,35.23
2018-09-05T17:01:38.843Z,34.20
2018-09-05T17:04:06.235Z,35.17
2018-09-05T17:06:42.971Z,35.97
2018-09-05T17:09:11.948Z,32.67
2018-09-05T17:11:39.650Z,33.87
2018-09-05T17:14:09.354Z,34.97
2018-09-05T17:16:43.102Z,33.55
2018-09-05T17:19:16.211Z,33.73
2018-09-05T17:22:08.117Z,34.00
2018-09-05T17:24:39.165Z,32.80
2018-09-05T17:27:12.084Z,33.83
2018-09-05T17:29:50.603Z,33.43
2018-09-05T17:32:22.948Z,32.87
2018-09-05T17:34:54.782Z,33.43
2018-09-05T17:37:31.700Z,32.97
2018-09-05T17:39:59.360Z,32.37
2018-09-05T17:42:26.548Z,33.00
2018-09-05T17:45:06.645Z,33.20
2018-09-05T17:47:43.615Z,32.83
2018-09-05T17:50:23.905Z,32.90
2018-09-05T17:52:51.425Z,32.40
2018-09-05T17:55:18.545Z,31.97
2018-09-05T17:57:45.672Z,31.80
2018-09-05T18:00:12.838Z,31.30
2018-09-05T18:02:39.956Z,33.53
2018-09-05T18:05:07.094Z,31.37
2018-09-05T18:07:34.208Z,31.13
2018-09-05T18:10:01.465Z,31.53
2018-09-05T18:12:28.587Z,32.63
2018-09-05T18:14:55.700Z,31.27
2018-09-05T18:17:23.148Z,30.73
2018-09-05T18:19:50.356Z,30.27
2018-09-05T18:22:17.476Z,29.73
2018-09-05T18:24:44.604Z,29.43
2018-09-05T18:27:11.733Z,29.60
2018-09-05T18:29:38.833Z,29.67
2018-09-05T18:32:05.988Z,28.70
2018-09-05T18:34:33.135Z,29.27
2018-09-05T18:37:00.241Z,28.73
2018-09-05T18:39:27.374Z,28.80
2018-09-05T18:41:54.493Z,29.80
2018-09-05T18:44:21.590Z,30.30
2018-09-05T18:46:48.706Z,30.20
2018-09-05T18:49:15.893Z,32.80
2018-09-05T18:51:43.072Z,30.23
2018-09-05T18:54:10.189Z,31.80
2018-09-05T18:56:37.316Z,30.87
2018-09-05T18:59:04.650Z,30.77
2018-09-05T19:01:31.744Z,31.13
2018-09-05T19:03:58.856Z,31.10
2018-09-05T19:06:25.962Z,31.60
2018-09-05T19:08:53.100Z,30.43
2018-09-05T19:11:20.224Z,30.40
2018-09-05T19:13:47.318Z,32.43
2018-09-05T19:16:14.425Z,31.77
2018-09-05T19:18:41.571Z,32.00
2018-09-05T19:21:08.757Z,32.57
2018-09-05T19:23:35.890Z,30.20
2018-09-05T19:26:03.051Z,31.07
2018-09-05T19:28:30.192Z,30.37
2018-09-05T19:30:57.362Z,32.17
2018-09-05T19:33:24.520Z,31.90
2018-09-05T19:35:51.628Z,31.43
2018-09-05T19:38:18.741Z,31.47
2018-09-05T19:40:45.841Z,32.93
2018-09-05T19:43:12.982Z,29.73
2018-09-05T19:45:40.093Z,31.43
2018-09-05T19:48:07.264Z,31.67
2018-09-05T19:50:34.357Z,31.30
2018-09-05T19:53:01.462Z,30.95
2018-09-05T19:55:28.632Z,31.37
2018-09-05T19:57:55.816Z,32.53
2018-09-05T20:00:22.928Z,32.00
2018-09-05T20:02:50.029Z,32.50
2018-09-05T20:05:17.160Z,32.43
2018-09-05T20:07:44.280Z,33.13
2018-09-05T20:10:11.387Z,32.13
2018-09-05T20:12:38.495Z,33.10
2018-09-05T20:15:05.625Z,33.27
2018-09-05T20:17:32.729Z,33.30
2018-09-05T20:19:59.894Z,32.20
2018-09-05T20:22:27.876Z,33.43
2018-09-05T20:24:55.032Z,32.70
2018-09-05T20:27:22.202Z,33.07
2018-09-05T20:29:49.321Z,32.23
2018-09-05T20:32:16.464Z,33.17
2018-09-05T20:34:43.612Z,32.33
2018-09-05T20:37:10.718Z,32.13
2018-09-05T20:39:37.824Z,32.53
2018-09-05T20:42:05.080Z,32.40
2018-09-05T20:44:32.190Z,32.30
2018-09-05T20:46:59.308Z,30.90
2018-09-05T20:49:26.417Z,32.83
2018-09-05T20:51:53.541Z,32.65
2018-09-05T20:54:20.767Z,33.63
2018-09-05T20:56:47.919Z,32.03
2018-09-05T20:59:15.084Z,32.23
2018-09-05T21:01:42.227Z,32.47
2018-09-05T21:04:09.348Z,31.83
2018-09-05T21:06:36.453Z,31.93
2018-09-05T21:09:05.393Z,30.93
2018-09-05T21:11:32.508Z,31.77
2018-09-05T21:13:59.680Z,30.30
2018-09-05T21:16:26.812Z,32.13
2018-09-05T21:18:53.914Z,30.90
2018-09-05T21:21:21.039Z,34.40
2018-09-05T21:23:48.164Z,34.77
2018-09-05T21:26:15.264Z,34.40
2018-09-05T21:28:42.362Z,36.30
2018-09-05T21:31:09.480Z,38.27
2018-09-05T21:33:36.789Z,40.70
2018-09-05T21:36:03.928Z,43.20
2018-09-05T21:38:31.024Z,43.70
2018-09-05T21:40:58.143Z,44.70
2018-09-05T21:43:25.264Z,29.37
2018-09-05T21:45:52.416Z,20.83
2018-09-05T21:48:19.597Z,17.63
2018-09-05T21:50:46.660Z,20.13
2018-09-05T21:53:13.784Z,14.03
2018-09-05T21:55:40.904Z,12.87
2018-09-05T21:58:08.004Z,10.20
2018-09-05T22:00:35.149Z,9.17
2018-09-05T22:03:02.292Z,9.03
2018-09-05T22:05:29.420Z,10.10
2018-09-05T22:07:56.553Z,9.33
2018-09-05T22:10:23.673Z,10.17
2018-09-05T22:12:50.972Z,9.07
2018-09-05T22:15:18.120Z,9.13
2018-09-05T22:17:45.219Z,9.33
2018-09-05T22:20:12.316Z,9.47
2018-09-05T22:22:39.400Z,9.80
2018-09-05T22:25:06.513Z,8.53
2018-09-05T22:27:33.609Z,8.90
2018-09-05T22:30:00.748Z,9.23
2018-09-05T22:32:27.856Z,8.57
2018-09-05T22:34:55.212Z,10.30
2018-09-05T22:37:22.888Z,10.83
2018-09-05T22:39:50.036Z,13.10
2018-09-05T22:42:17.140Z,10.93
2018-09-05T22:44:56.347Z,12.60
2018-09-05T22:47:41.848Z,13.27
2018-09-05T22:52:27.004Z,14.17
2018-09-05T22:57:27.232Z,13.73
2018-09-05T23:00:09.992Z,15.10
2018-09-05T23:02:47.019Z,15.50
2018-09-05T23:07:27.931Z,16.23
2018-09-05T23:10:06.440Z,17.43
2018-09-05T23:12:45.029Z,17.50
2018-09-05T23:15:23.708Z,17.27
2018-09-05T23:19:36.272Z,18.57
2018-09-05T23:22:03.409Z,20.27
2018-09-05T23:24:30.500Z,21.60
2018-09-05T23:26:57.600Z,25.77
2018-09-05T23:29:24.740Z,26.07
2018-09-05T23:31:51.850Z,26.93
2018-09-05T23:34:18.964Z,31.23
2018-09-05T23:36:46.109Z,38.17
2018-09-05T23:39:13.220Z,37.57
2018-09-05T23:41:40.320Z,43.23
2018-09-05T23:44:07.449Z,40.70
2018-09-05T23:46:34.564Z,45.17
2018-09-05T23:49:01.684Z,43.93
2018-09-05T23:51:28.787Z,48.93
2018-09-05T23:53:55.889Z,54.33
2018-09-05T23:56:23.009Z,57.60
2018-09-05T23:58:50.112Z,61.53
